createdAt,value
2022-10-16T00:02:49.284Z,6.60
2022-10-16T00:07:52.589Z,8.18
2022-10-16T00:12:55.939Z,6.43
2022-10-16T00:18:00.779Z,6.30
2022-10-16T00:23:06.150Z,7.38
2022-10-16T00:28:09.450Z,9.00
2022-10-16T00:33:14.097Z,9.48
2022-10-16T00:38:17.387Z,7.47
2022-10-16T00:43:37.751Z,7.03
2022-10-16T00:48:43.032Z,5.80
2022-10-16T00:53:47.131Z,5.10
2022-10-16T00:58:50.531Z,5.88
2022-10-16T01:03:55.176Z,5.70
2022-10-16T01:09:09.341Z,5.63
2022-10-16T01:14:22.029Z,6.10
2022-10-16T01:19:42.345Z,6.10
2022-10-16T01:24:50.366Z,6.13
2022-10-16T01:29:58.621Z,5.28
2022-10-16T01:35:05.896Z,5.43
2022-10-16T01:40:14.290Z,4.77
2022-10-16T01:45:21.033Z,4.60
2022-10-16T01:50:24.880Z,5.80
2022-10-16T01:55:31.756Z,4.63
2022-10-16T02:00:38.796Z,4.68
2022-10-16T02:05:47.221Z,4.17
2022-10-16T02:10:50.621Z,5.40
2022-10-16T02:15:55.599Z,5.90
2022-10-16T02:21:01.770Z,5.78
2022-10-16T02:26:09.353Z,6.18
2022-10-16T02:31:17.162Z,7.00
2022-10-16T02:36:22.200Z,6.23
2022-10-16T02:41:25.924Z,6.70
2022-10-16T02:46:30.675Z,5.85
2022-10-16T02:51:33.938Z,5.45
2022-10-16T02:56:37.305Z,5.53
2022-10-16T03:01:41.989Z,5.18
2022-10-16T03:06:45.246Z,5.00
2022-10-16T03:11:48.569Z,5.10
2022-10-16T03:16:53.216Z,6.20
2022-10-16T03:21:56.578Z,5.33
2022-10-16T03:27:00.453Z,6.23
2022-10-16T03:32:05.834Z,4.90
2022-10-16T03:37:09.144Z,4.82
2022-10-16T03:42:12.452Z,4.85
2022-10-16T03:47:21.708Z,5.93
2022-10-16T03:52:25.093Z,5.55
2022-10-16T03:57:28.816Z,6.60
2022-10-16T04:02:33.831Z,6.40
2022-10-16T04:07:37.500Z,6.85
2022-10-16T04:12:40.810Z,9.30
2022-10-16T04:17:45.473Z,9.75
2022-10-16T04:22:48.758Z,8.88
2022-10-16T04:27:52.072Z,8.38
2022-10-16T04:32:56.888Z,8.17
2022-10-16T04:38:00.260Z,7.72
2022-10-16T04:43:03.574Z,6.60
2022-10-16T04:48:08.273Z,4.95
2022-10-16T04:53:11.810Z,5.00
2022-10-16T04:58:15.133Z,5.40
2022-10-16T05:03:20.188Z,5.10
2022-10-16T05:08:23.579Z,5.23
2022-10-16T05:13:26.925Z,4.90
2022-10-16T05:18:31.581Z,5.00
2022-10-16T05:23:35.205Z,6.20
2022-10-16T05:28:38.496Z,6.10
2022-10-16T05:33:45.081Z,6.50
2022-10-16T05:38:48.451Z,11.30
2022-10-16T05:43:51.767Z,10.18
2022-10-16T05:48:56.466Z,10.77
2022-10-16T05:53:59.756Z,11.90
2022-10-16T05:59:03.218Z,12.77
2022-10-16T06:04:07.904Z,10.70
2022-10-16T06:09:12.235Z,10.50
2022-10-16T06:14:15.569Z,11.15
2022-10-16T06:19:20.363Z,9.77
2022-10-16T06:24:23.629Z,9.88
2022-10-16T06:29:26.939Z,9.18
2022-10-16T06:34:32.321Z,8.85
2022-10-16T06:39:35.601Z,6.85
2022-10-16T06:44:38.888Z,6.47
2022-10-16T06:49:43.563Z,5.85
2022-10-16T06:54:46.857Z,6.85
2022-10-16T06:59:55.115Z,7.13
2022-10-16T07:05:00.206Z,7.80
2022-10-16T07:10:03.494Z,6.00
2022-10-16T07:15:07.787Z,6.38
2022-10-16T07:20:12.889Z,4.82
2022-10-16T07:25:16.198Z,3.80
2022-10-16T07:30:19.447Z,3.40
2022-10-16T07:35:24.073Z,3.50
2022-10-16T07:40:28.173Z,2.93
2022-10-16T07:45:31.578Z,3.00
2022-10-16T07:50:36.288Z,2.65
2022-10-16T07:55:39.655Z,2.22
2022-10-16T08:00:42.948Z,2.30
2022-10-16T08:05:48.131Z,2.75
2022-10-16T08:10:51.614Z,2.50
2022-10-16T08:15:56.940Z,2.00
2022-10-16T08:21:02.058Z,2.17
2022-10-16T08:26:07.042Z,2.10
2022-10-16T08:31:12.073Z,1.95
2022-10-16T08:36:18.381Z,2.13
2022-10-16T08:41:53.476Z,2.40
2022-10-16T08:47:05.557Z,2.30
2022-10-16T08:52:14.554Z,2.08
2022-10-16T08:57:24.341Z,2.20
2022-10-16T09:02:34.499Z,1.85
2022-10-16T09:07:47.664Z,1.90
2022-10-16T09:12:57.236Z,1.70
2022-10-16T09:18:07.433Z,1.92
2022-10-16T09:23:18.886Z,1.50
2022-10-16T09:28:22.573Z,1.60
2022-10-16T09:33:31.764Z,1.80
2022-10-16T09:38:38.317Z,1.60
2022-10-16T09:43:44.248Z,1.52
2022-10-16T09:48:51.101Z,1.60
2022-10-16T09:54:01.076Z,1.50
2022-10-16T09:59:12.592Z,1.60
2022-10-16T10:04:16.497Z,1.38
2022-10-16T10:09:23.569Z,1.20
2022-10-16T10:14:37.163Z,1.30
2022-10-16T10:19:41.794Z,1.40
2022-10-16T10:24:46.848Z,1.30
2022-10-16T10:29:58.712Z,1.38
2022-10-16T10:35:16.391Z,1.30
2022-10-16T10:40:31.620Z,1.30
2022-10-16T10:45:44.086Z,1.20
2022-10-16T10:50:52.138Z,1.15
2022-10-16T10:56:03.223Z,1.10
2022-10-16T11:01:11.156Z,1.23
2022-10-16T11:06:20.066Z,1.20
2022-10-16T11:11:32.084Z,1.20
2022-10-16T11:16:41.196Z,1.48
2022-10-16T11:21:51.513Z,1.50
2022-10-16T11:26:57.810Z,1.55
2022-10-16T11:32:07.173Z,1.40
2022-10-16T11:37:16.534Z,1.10
2022-10-16T11:42:24.859Z,1.42
2022-10-16T11:53:05.649Z,1.30
2022-10-16T11:58:16.934Z,1.20
2022-10-16T12:03:28.966Z,1.20
2022-10-16T12:08:32.433Z,1.10
2022-10-16T12:13:39.079Z,1.17
2022-10-16T12:18:43.602Z,1.30
2022-10-16T12:23:51.481Z,1.23
2022-10-16T12:28:57.069Z,1.40
2022-10-16T12:34:03.488Z,1.48
2022-10-16T12:39:07.204Z,1.40
2022-10-16T12:44:27.410Z,1.30
2022-10-16T12:49:40.885Z,1.20
2022-10-16T12:54:45.207Z,1.40
2022-10-16T12:59:56.397Z,2.25
2022-10-16T13:05:15.494Z,1.33
2022-10-16T13:10:29.644Z,1.20
2022-10-16T13:15:53.049Z,1.08
2022-10-16T13:21:11.666Z,1.30
2022-10-16T13:26:25.756Z,1.48
2022-10-16T13:31:31.071Z,1.30
2022-10-16T13:36:44.433Z,1.50
2022-10-16T13:41:47.813Z,1.23
2022-10-16T13:47:02.401Z,1.45
2022-10-16T13:52:05.834Z,1.40
2022-10-16T13:57:26.228Z,1.50
2022-10-16T14:02:36.240Z,1.50
2022-10-16T14:07:40.298Z,1.75
2022-10-16T14:12:43.623Z,1.42
2022-10-16T14:17:52.476Z,1.30
2022-10-16T14:23:03.935Z,1.38
2022-10-16T14:28:18.771Z,1.70
2022-10-16T14:33:27.654Z,1.55
2022-10-16T14:38:31.462Z,1.70
2022-10-16T14:43:37.909Z,1.40
2022-10-16T14:48:45.298Z,2.33
2022-10-16T14:53:49.253Z,2.47
2022-10-16T14:58:53.733Z,2.30
2022-10-16T15:03:58.378Z,2.70
2022-10-16T15:09:01.681Z,2.90
2022-10-16T15:14:05.754Z,2.60
2022-10-16T15:19:10.521Z,2.60
2022-10-16T15:24:18.026Z,2.50
2022-10-16T15:29:24.267Z,2.70
2022-10-16T15:34:28.933Z,3.70
2022-10-16T15:39:32.329Z,7.07
2022-10-16T15:44:35.606Z,5.25
2022-10-16T15:49:40.860Z,4.30
2022-10-16T15:54:48.199Z,4.60
2022-10-16T15:59:53.710Z,5.28
2022-10-16T16:04:58.391Z,5.73
2022-10-16T16:10:02.014Z,5.00
2022-10-16T16:15:06.065Z,6.20
2022-10-16T16:20:12.632Z,6.55
2022-10-16T16:25:16.006Z,6.25
2022-10-16T16:30:24.775Z,6.63
2022-10-16T16:35:32.116Z,5.93
2022-10-16T16:40:35.379Z,6.25
2022-10-16T16:45:38.719Z,6.78
2022-10-16T16:50:43.368Z,6.50
2022-10-16T16:55:47.125Z,6.95
2022-10-16T17:00:56.620Z,7.68
2022-10-16T17:06:02.995Z,8.48
2022-10-16T17:11:06.771Z,8.20
2022-10-16T17:16:10.901Z,8.48
2022-10-16T17:21:15.580Z,12.50
2022-10-16T17:26:19.210Z,8.85
2022-10-16T17:31:24.500Z,9.27
2022-10-16T17:36:31.054Z,10.43
2022-10-16T17:41:34.989Z,9.32
2022-10-16T17:46:41.211Z,10.30
2022-10-16T17:51:46.124Z,10.30
2022-10-16T17:56:49.633Z,10.90
2022-10-16T18:01:53.053Z,7.57
2022-10-16T18:06:57.740Z,7.63
2022-10-16T18:12:01.255Z,7.07
2022-10-16T18:17:04.500Z,8.20
2022-10-16T18:22:09.125Z,7.97
2022-10-16T18:27:12.550Z,8.17
2022-10-16T18:32:15.933Z,8.97
2022-10-16T18:37:20.674Z,8.73
2022-10-16T18:42:24.747Z,8.70
2022-10-16T18:47:30.346Z,9.17
2022-10-16T18:52:35.133Z,8.33
2022-10-16T18:57:38.453Z,7.50
2022-10-16T19:02:41.829Z,7.60
2022-10-16T19:07:48.743Z,6.93
2022-10-16T19:12:52.073Z,6.57
2022-10-16T19:17:55.407Z,6.70
2022-10-16T19:23:00.059Z,6.80
2022-10-16T19:28:07.497Z,6.72
2022-10-16T19:33:10.808Z,6.90
2022-10-16T19:38:15.458Z,7.43
2022-10-16T19:43:19.452Z,8.43
2022-10-16T19:53:28.537Z,6.82
2022-10-16T19:58:31.812Z,8.23
2022-10-16T20:03:35.636Z,7.60
2022-10-16T20:08:42.298Z,10.57
2022-10-16T20:13:46.520Z,14.47
2022-10-16T20:18:51.431Z,11.20
2022-10-16T20:23:56.698Z,10.80
2022-10-16T20:29:00.101Z,10.40
2022-10-16T20:34:06.052Z,10.30
2022-10-16T20:39:13.747Z,10.10
2022-10-16T20:44:17.028Z,10.40
2022-10-16T20:49:28.785Z,10.40
2022-10-16T20:54:46.067Z,9.63
2022-10-16T20:59:55.056Z,10.23
2022-10-16T21:04:58.332Z,9.55
2022-10-16T21:10:03.015Z,9.57
2022-10-16T21:15:14.747Z,9.68
2022-10-16T21:20:18.875Z,9.93
2022-10-16T21:25:23.518Z,9.52
2022-10-16T21:30:27.151Z,9.60
2022-10-16T21:35:32.188Z,9.80
2022-10-16T21:40:36.938Z,9.65
2022-10-16T21:45:40.216Z,9.60
2022-10-16T21:55:53.140Z,9.18
2022-10-16T22:00:56.511Z,9.88
2022-10-16T22:06:06.597Z,9.77
2022-10-16T22:11:13.475Z,10.87
2022-10-16T22:16:16.853Z,11.40
2022-10-16T22:21:20.339Z,10.88
2022-10-16T22:26:24.974Z,11.13
2022-10-16T22:31:28.505Z,9.93
2022-10-16T22:36:32.207Z,8.98
2022-10-16T22:41:36.875Z,8.38
2022-10-16T22:46:40.198Z,8.27
2022-10-16T22:51:43.560Z,7.97
2022-10-16T22:56:48.224Z,7.47
2022-10-16T23:01:51.555Z,7.68
2022-10-16T23:06:54.876Z,7.05
2022-10-16T23:11:59.592Z,7.03
2022-10-16T23:17:02.841Z,6.67
2022-10-16T23:22:06.166Z,6.57
2022-10-16T23:27:10.963Z,7.07
2022-10-16T23:32:14.241Z,6.80
2022-10-16T23:37:17.502Z,7.33
2022-10-16T23:42:22.330Z,8.30
2022-10-16T23:47:25.826Z,8.02
2022-10-16T23:52:29.280Z,7.53
2022-10-16T23:57:33.926Z,9.30
